This is the latest recevied weather packets stored in our database for station/object OK2ZI. If no packets are shown the sender has not sent any weather packets the latest 10 day(s).
| Time | Temp. | Humidity | Pressure | Rain* | Wind** | Luminosity | Snow |
|---|---|---|---|---|---|---|---|
| 1778024047 | 13.33° C | 72% | 1003 hPa | 0 mm | - | - | - |
| 1778023450 | 12.22° C | 72% | 1003 hPa | 0 mm | - | - | - |
| 1778022487 | 12.22° C | 76% | 1003 hPa | 0 mm | - | - | - |
| 1778022126 | 12.22° C | 75% | 1003 hPa | 0 mm | - | - | - |
| 1778022020 | 12.22° C | 76% | 1003 hPa | 0 mm | - | - | - |
| 1778021526 | 12.78° C | 73% | 1003 hPa | 0 mm | - | - | - |
| 1778021409 | 12.78° C | 73% | 1003 hPa | 0 mm | - | - | - |
| 1778021286 | 12.78° C | 72% | 1003 hPa | 0 mm | - | - | - |
| 1778020215 | 13.89° C | 68% | 1003 hPa | 0 mm | - | - | - |
| 1778020087 | 13.89° C | 67% | 1003 hPa | 0 mm | - | - | - |
| 1778019967 | 13.89° C | 67% | 1003 hPa | 0 mm | - | - | - |
| 1778019366 | 13.89° C | 67% | 1003 hPa | 0 mm | - | - | - |
| 1778018527 | 13.89° C | 67% | 1003 hPa | 0 mm | - | - | - |
| 1778017326 | 14.44° C | 65% | 1003 hPa | 0 mm | - | - | - |
| 1778017086 | 14.44° C | 65% | 1003 hPa | 0 mm | - | - | - |
| 1778016847 | 14.44° C | 64% | 1003 hPa | 0 mm | - | - | - |
| 1778016011 | 15° C | 63% | 1003 hPa | 0 mm | - | - | - |
| 1778015887 | 15° C | 63% | 1003 hPa | 0 mm | - | - | - |
| 1778014899 | 14.44° C | 63% | 1003 hPa | 0 mm | - | - | - |
| 1778014687 | 15° C | 62% | 1003 hPa | 0 mm | - | - | - |
| 1778013848 | 15° C | 61% | 1003 hPa | 0 mm | - | - | - |
| 1778012887 | 15.56° C | 60% | 1003 hPa | 0 mm | - | - | - |
| 1778012527 | 15.56° C | 60% | 1003 hPa | 0 mm | - | - | - |
| 1778012287 | 15.56° C | 60% | 1002 hPa | 0 mm | - | - | - |
| 1778011686 | 15.56° C | 59% | 1003 hPa | 0 mm | - | - | - |
* Rain latest hour (hover to see other rain measurements)
** Current wind speed in m/s (hover to see current wind gust speed)